sensor_id;sensor_type;location;lat;lon;timestamp;temperature;humidity
69054;DHT22;56125;52.242;4.756;2022-09-30T00:01:23;19.10;52.70
69054;DHT22;56125;52.242;4.756;2022-09-30T00:06:29;19.10;52.60
69054;DHT22;56125;52.242;4.756;2022-09-30T00:11:33;19.10;52.70
69054;DHT22;56125;52.242;4.756;2022-09-30T00:16:36;19.10;52.60
69054;DHT22;56125;52.242;4.756;2022-09-30T00:21:37;19.10;52.60
69054;DHT22;56125;52.242;4.756;2022-09-30T00:26:38;19.10;52.60
69054;DHT22;56125;52.242;4.756;2022-09-30T00:31:39;19.10;52.50
69054;DHT22;56125;52.242;4.756;2022-09-30T00:36:46;19.10;52.50
69054;DHT22;56125;52.242;4.756;2022-09-30T00:41:49;19.10;52.50
69054;DHT22;56125;52.242;4.756;2022-09-30T00:46:53;19.10;52.50
69054;DHT22;56125;52.242;4.756;2022-09-30T00:51:56;19.10;52.50
69054;DHT22;56125;52.242;4.756;2022-09-30T00:57:03;19.10;52.50
69054;DHT22;56125;52.242;4.756;2022-09-30T01:02:04;19.10;52.50
69054;DHT22;56125;52.242;4.756;2022-09-30T01:07:07;19.10;52.50
69054;DHT22;56125;52.242;4.756;2022-09-30T01:12:14;19.10;52.50
69054;DHT22;56125;52.242;4.756;2022-09-30T01:38:29;19.00;52.40
69054;DHT22;56125;52.242;4.756;2022-09-30T01:43:46;19.00;52.40
69054;DHT22;56125;52.242;4.756;2022-09-30T01:48:56;19.00;52.40
69054;DHT22;56125;52.242;4.756;2022-09-30T01:54:13;19.00;52.40
69054;DHT22;56125;52.242;4.756;2022-09-30T01:59:22;19.00;52.30
69054;DHT22;56125;52.242;4.756;2022-09-30T02:04:31;19.00;52.30
69054;DHT22;56125;52.242;4.756;2022-09-30T02:09:39;19.00;52.20
69054;DHT22;56125;52.242;4.756;2022-09-30T02:14:44;19.00;52.10
69054;DHT22;56125;52.242;4.756;2022-09-30T02:19:52;19.00;52.00
69054;DHT22;56125;52.242;4.756;2022-09-30T02:24:58;19.00;52.00
69054;DHT22;56125;52.242;4.756;2022-09-30T02:30:01;19.00;52.00
69054;DHT22;56125;52.242;4.756;2022-09-30T02:35:09;18.90;52.00
69054;DHT22;56125;52.242;4.756;2022-09-30T02:40:16;19.00;52.00
69054;DHT22;56125;52.242;4.756;2022-09-30T02:45:20;18.90;51.90
69054;DHT22;56125;52.242;4.756;2022-09-30T02:50:31;18.90;51.90
69054;DHT22;56125;52.242;4.756;2022-09-30T03:00:55;18.90;51.90
69054;DHT22;56125;52.242;4.756;2022-09-30T03:05:57;18.90;51.90
69054;DHT22;56125;52.242;4.756;2022-09-30T03:10:58;18.90;51.90
69054;DHT22;56125;52.242;4.756;2022-09-30T03:42:23;18.90;51.80
69054;DHT22;56125;52.242;4.756;2022-09-30T03:47:28;18.80;51.80
69054;DHT22;56125;52.242;4.756;2022-09-30T03:52:32;18.80;51.70
69054;DHT22;56125;52.242;4.756;2022-09-30T03:57:34;18.80;51.70
69054;DHT22;56125;52.242;4.756;2022-09-30T04:02:35;18.80;51.70
69054;DHT22;56125;52.242;4.756;2022-09-30T04:07:37;18.80;51.60
69054;DHT22;56125;52.242;4.756;2022-09-30T04:12:38;18.80;51.60
69054;DHT22;56125;52.242;4.756;2022-09-30T04:17:39;18.80;51.60
69054;DHT22;56125;52.242;4.756;2022-09-30T04:22:40;18.80;51.50
69054;DHT22;56125;52.242;4.756;2022-09-30T04:27:41;18.80;51.60
69054;DHT22;56125;52.242;4.756;2022-09-30T04:32:42;18.80;51.60
69054;DHT22;56125;52.242;4.756;2022-09-30T04:37:46;18.80;51.50
69054;DHT22;56125;52.242;4.756;2022-09-30T04:42:47;18.80;51.50
69054;DHT22;56125;52.242;4.756;2022-09-30T04:47:48;18.80;51.50
69054;DHT22;56125;52.242;4.756;2022-09-30T04:52:49;18.80;51.70
69054;DHT22;56125;52.242;4.756;2022-09-30T04:57:50;18.80;51.40
69054;DHT22;56125;52.242;4.756;2022-09-30T05:02:51;18.70;51.40
69054;DHT22;56125;52.242;4.756;2022-09-30T05:07:52;18.80;51.30
69054;DHT22;56125;52.242;4.756;2022-09-30T05:12:53;18.80;51.30
69054;DHT22;56125;52.242;4.756;2022-09-30T05:17:54;18.70;51.30
69054;DHT22;56125;52.242;4.756;2022-09-30T05:22:55;18.70;51.30
69054;DHT22;56125;52.242;4.756;2022-09-30T05:27:56;18.70;51.20
69054;DHT22;56125;52.242;4.756;2022-09-30T05:32:57;18.70;51.30
69054;DHT22;56125;52.242;4.756;2022-09-30T05:37:59;18.70;51.20
69054;DHT22;56125;52.242;4.756;2022-09-30T05:43:00;18.70;51.30
69054;DHT22;56125;52.242;4.756;2022-09-30T05:48:01;18.70;51.40
69054;DHT22;56125;52.242;4.756;2022-09-30T05:53:02;18.70;51.40
69054;DHT22;56125;52.242;4.756;2022-09-30T05:58:03;18.70;51.40
69054;DHT22;56125;52.242;4.756;2022-09-30T06:03:04;18.70;51.30
69054;DHT22;56125;52.242;4.756;2022-09-30T06:08:05;18.70;51.40
69054;DHT22;56125;52.242;4.756;2022-09-30T06:13:10;18.80;51.50
69054;DHT22;56125;52.242;4.756;2022-09-30T06:18:11;18.80;51.60
69054;DHT22;56125;52.242;4.756;2022-09-30T06:23:12;18.80;52.70
69054;DHT22;56125;52.242;4.756;2022-09-30T06:28:13;18.80;51.70
69054;DHT22;56125;52.242;4.756;2022-09-30T06:33:14;18.80;51.90
69054;DHT22;56125;52.242;4.756;2022-09-30T06:38:16;18.80;52.20
69054;DHT22;56125;52.242;4.756;2022-09-30T06:43:17;18.80;52.40
69054;DHT22;56125;52.242;4.756;2022-09-30T06:48:18;18.80;52.80
69054;DHT22;56125;52.242;4.756;2022-09-30T06:53:19;18.80;53.10
69054;DHT22;56125;52.242;4.756;2022-09-30T06:58:20;18.80;53.20
69054;DHT22;56125;52.242;4.756;2022-09-30T07:03:26;18.80;53.60
69054;DHT22;56125;52.242;4.756;2022-09-30T07:08:30;18.80;53.40
69054;DHT22;56125;52.242;4.756;2022-09-30T07:13:32;18.80;53.90
69054;DHT22;56125;52.242;4.756;2022-09-30T07:18:33;18.80;53.90
69054;DHT22;56125;52.242;4.756;2022-09-30T07:23:34;18.80;54.40
69054;DHT22;56125;52.242;4.756;2022-09-30T07:28:36;18.90;54.90
69054;DHT22;56125;52.242;4.756;2022-09-30T07:33:39;18.90;55.00
69054;DHT22;56125;52.242;4.756;2022-09-30T07:38:41;18.90;56.50
69054;DHT22;56125;52.242;4.756;2022-09-30T07:43:43;18.90;55.20
69054;DHT22;56125;52.242;4.756;2022-09-30T07:48:46;18.90;55.60
69054;DHT22;56125;52.242;4.756;2022-09-30T07:53:52;19.00;55.60
69054;DHT22;56125;52.242;4.756;2022-09-30T07:58:55;19.00;55.60
69054;DHT22;56125;52.242;4.756;2022-09-30T08:03:59;19.00;55.70
69054;DHT22;56125;52.242;4.756;2022-09-30T08:09:00;19.10;55.70
69054;DHT22;56125;52.242;4.756;2022-09-30T08:14:02;19.10;56.20
69054;DHT22;56125;52.242;4.756;2022-09-30T08:19:03;19.10;56.30
69054;DHT22;56125;52.242;4.756;2022-09-30T08:24:08;19.10;56.20
69054;DHT22;56125;52.242;4.756;2022-09-30T08:29:14;19.20;56.60
69054;DHT22;56125;52.242;4.756;2022-09-30T08:34:16;19.10;56.30
69054;DHT22;56125;52.242;4.756;2022-09-30T08:39:17;19.10;56.10
69054;DHT22;56125;52.242;4.756;2022-09-30T08:49:40;19.10;56.00
69054;DHT22;56125;52.242;4.756;2022-09-30T08:54:47;19.10;56.00
69054;DHT22;56125;52.242;4.756;2022-09-30T08:59:59;19.10;56.00
69054;DHT22;56125;52.242;4.756;2022-09-30T09:05:03;19.20;55.80
69054;DHT22;56125;52.242;4.756;2022-09-30T09:15:29;19.20;55.80
69054;DHT22;56125;52.242;4.756;2022-09-30T09:20:37;19.20;55.60
69054;DHT22;56125;52.242;4.756;2022-09-30T09:25:41;19.20;55.40
69054;DHT22;56125;52.242;4.756;2022-09-30T09:30:48;19.20;55.50
69054;DHT22;56125;52.242;4.756;2022-09-30T09:41:39;19.20;55.50
69054;DHT22;56125;52.242;4.756;2022-09-30T09:47:00;19.20;55.60
69054;DHT22;56125;52.242;4.756;2022-09-30T09:57:17;19.20;55.60
69054;DHT22;56125;52.242;4.756;2022-09-30T10:02:29;19.30;55.60
69054;DHT22;56125;52.242;4.756;2022-09-30T10:07:32;19.30;55.30
69054;DHT22;56125;52.242;4.756;2022-09-30T10:12:34;19.20;55.10
69054;DHT22;56125;52.242;4.756;2022-09-30T10:17:36;19.30;55.10
69054;DHT22;56125;52.242;4.756;2022-09-30T10:22:37;19.30;55.00
69054;DHT22;56125;52.242;4.756;2022-09-30T10:27:47;19.30;54.70
69054;DHT22;56125;52.242;4.756;2022-09-30T10:32:48;19.30;54.60
69054;DHT22;56125;52.242;4.756;2022-09-30T10:37:51;19.30;54.50
69054;DHT22;56125;52.242;4.756;2022-09-30T10:42:53;19.30;54.30
69054;DHT22;56125;52.242;4.756;2022-09-30T10:47:55;19.30;54.10
69054;DHT22;56125;52.242;4.756;2022-09-30T10:53:00;19.30;54.00
69054;DHT22;56125;52.242;4.756;2022-09-30T10:58:41;19.30;53.90
69054;DHT22;56125;52.242;4.756;2022-09-30T11:08:57;19.40;53.80
69054;DHT22;56125;52.242;4.756;2022-09-30T11:19:27;19.40;53.70
69054;DHT22;56125;52.242;4.756;2022-09-30T11:24:40;19.40;53.70
69054;DHT22;56125;52.242;4.756;2022-09-30T11:29:48;19.40;53.60
69054;DHT22;56125;52.242;4.756;2022-09-30T11:35:08;19.40;53.50
69054;DHT22;56125;52.242;4.756;2022-09-30T11:40:50;19.40;53.40
69054;DHT22;56125;52.242;4.756;2022-09-30T11:51:30;19.40;53.40
69054;DHT22;56125;52.242;4.756;2022-09-30T11:56:57;19.40;53.40
69054;DHT22;56125;52.242;4.756;2022-09-30T12:02:03;19.40;53.30
69054;DHT22;56125;52.242;4.756;2022-09-30T12:12:13;19.50;53.20
69054;DHT22;56125;52.242;4.756;2022-09-30T12:17:24;19.50;53.20
69054;DHT22;56125;52.242;4.756;2022-09-30T12:22:34;19.50;53.10
69054;DHT22;56125;52.242;4.756;2022-09-30T12:27:46;19.50;53.10
69054;DHT22;56125;52.242;4.756;2022-09-30T12:49:12;19.50;53.20
69054;DHT22;56125;52.242;4.756;2022-09-30T12:54:31;19.50;53.20
69054;DHT22;56125;52.242;4.756;2022-09-30T12:59:35;19.50;53.30
69054;DHT22;56125;52.242;4.756;2022-09-30T13:04:39;19.50;53.30
69054;DHT22;56125;52.242;4.756;2022-09-30T13:09:57;19.50;53.20
69054;DHT22;56125;52.242;4.756;2022-09-30T13:15:22;19.50;53.20
69054;DHT22;56125;52.242;4.756;2022-09-30T13:26:30;19.50;53.10
69054;DHT22;56125;52.242;4.756;2022-09-30T13:31:31;19.50;53.10
69054;DHT22;56125;52.242;4.756;2022-09-30T13:42:05;19.50;53.00
69054;DHT22;56125;52.242;4.756;2022-09-30T13:47:22;19.50;53.00
69054;DHT22;56125;52.242;4.756;2022-09-30T13:52:30;19.50;53.00
69054;DHT22;56125;52.242;4.756;2022-09-30T14:14:14;19.60;52.70
69054;DHT22;56125;52.242;4.756;2022-09-30T14:24:42;19.60;52.30
69054;DHT22;56125;52.242;4.756;2022-09-30T14:35:23;19.60;51.90
69054;DHT22;56125;52.242;4.756;2022-09-30T14:40:36;19.60;51.70
69054;DHT22;56125;52.242;4.756;2022-09-30T14:45:42;19.60;51.60
69054;DHT22;56125;52.242;4.756;2022-09-30T14:51:04;19.60;51.50
69054;DHT22;56125;52.242;4.756;2022-09-30T15:01:29;19.60;51.30
69054;DHT22;56125;52.242;4.756;2022-09-30T15:06:36;19.60;51.20
69054;DHT22;56125;52.242;4.756;2022-09-30T15:11:37;19.60;51.20
69054;DHT22;56125;52.242;4.756;2022-09-30T15:16:50;19.60;51.10
69054;DHT22;56125;52.242;4.756;2022-09-30T15:21:57;19.60;52.20
69054;DHT22;56125;52.242;4.756;2022-09-30T15:27:03;19.60;51.00
69054;DHT22;56125;52.242;4.756;2022-09-30T15:32:20;19.60;51.00
69054;DHT22;56125;52.242;4.756;2022-09-30T15:37:26;19.60;51.00
69054;DHT22;56125;52.242;4.756;2022-09-30T15:42:44;19.60;51.20
69054;DHT22;56125;52.242;4.756;2022-09-30T15:48:05;19.50;51.00
69054;DHT22;56125;52.242;4.756;2022-09-30T15:53:16;19.50;51.00
69054;DHT22;56125;52.242;4.756;2022-09-30T15:58:33;19.50;51.10
69054;DHT22;56125;52.242;4.756;2022-09-30T16:03:37;19.50;51.20
69054;DHT22;56125;52.242;4.756;2022-09-30T16:08:45;19.50;51.20
69054;DHT22;56125;52.242;4.756;2022-09-30T16:13:47;19.50;51.10
69054;DHT22;56125;52.242;4.756;2022-09-30T16:18:50;19.40;51.10
69054;DHT22;56125;52.242;4.756;2022-09-30T16:23:52;19.40;51.10
69054;DHT22;56125;52.242;4.756;2022-09-30T16:28:55;19.40;51.20
69054;DHT22;56125;52.242;4.756;2022-09-30T16:33:56;19.40;51.20
69054;DHT22;56125;52.242;4.756;2022-09-30T16:38:57;19.40;51.30
69054;DHT22;56125;52.242;4.756;2022-09-30T16:43:58;19.40;51.30
69054;DHT22;56125;52.242;4.756;2022-09-30T16:49:00;19.40;51.40
69054;DHT22;56125;52.242;4.756;2022-09-30T16:54:06;19.40;51.40
69054;DHT22;56125;52.242;4.756;2022-09-30T16:59:12;19.40;51.50
69054;DHT22;56125;52.242;4.756;2022-09-30T17:04:14;19.30;51.50
69054;DHT22;56125;52.242;4.756;2022-09-30T17:09:15;19.30;51.50
69054;DHT22;56125;52.242;4.756;2022-09-30T17:14:16;19.40;51.70
69054;DHT22;56125;52.242;4.756;2022-09-30T17:19:17;19.30;51.60
69054;DHT22;56125;52.242;4.756;2022-09-30T17:24:18;19.30;51.60
69054;DHT22;56125;52.242;4.756;2022-09-30T17:29:19;19.30;51.70
69054;DHT22;56125;52.242;4.756;2022-09-30T17:34:20;19.30;51.70
69054;DHT22;56125;52.242;4.756;2022-09-30T17:39:24;19.30;51.80
69054;DHT22;56125;52.242;4.756;2022-09-30T17:44:25;19.30;51.80
69054;DHT22;56125;52.242;4.756;2022-09-30T17:49:36;19.30;51.90
69054;DHT22;56125;52.242;4.756;2022-09-30T17:54:37;19.30;51.90
69054;DHT22;56125;52.242;4.756;2022-09-30T17:59:38;19.20;51.90
69054;DHT22;56125;52.242;4.756;2022-09-30T18:04:40;19.20;51.80
69054;DHT22;56125;52.242;4.756;2022-09-30T18:09:41;19.20;51.80
69054;DHT22;56125;52.242;4.756;2022-09-30T18:14:42;19.20;51.80
69054;DHT22;56125;52.242;4.756;2022-09-30T18:19:43;19.20;51.80
69054;DHT22;56125;52.242;4.756;2022-09-30T18:24:44;19.20;51.80
69054;DHT22;56125;52.242;4.756;2022-09-30T18:30:04;19.20;51.80
69054;DHT22;56125;52.242;4.756;2022-09-30T18:35:06;19.20;51.80
69054;DHT22;56125;52.242;4.756;2022-09-30T18:40:13;19.20;51.80
69054;DHT22;56125;52.242;4.756;2022-09-30T18:45:16;19.20;51.70
69054;DHT22;56125;52.242;4.756;2022-09-30T18:50:17;19.10;51.60
69054;DHT22;56125;52.242;4.756;2022-09-30T18:55:19;19.10;51.60
69054;DHT22;56125;52.242;4.756;2022-09-30T19:00:20;19.10;51.50
69054;DHT22;56125;52.242;4.756;2022-09-30T19:05:21;19.10;51.50
69054;DHT22;56125;52.242;4.756;2022-09-30T19:10:22;19.10;51.50
69054;DHT22;56125;52.242;4.756;2022-09-30T19:15:30;19.10;51.50
69054;DHT22;56125;52.242;4.756;2022-09-30T19:20:34;19.10;51.50
69054;DHT22;56125;52.242;4.756;2022-09-30T19:25:36;19.10;51.50
69054;DHT22;56125;52.242;4.756;2022-09-30T19:30:38;19.10;51.50
69054;DHT22;56125;52.242;4.756;2022-09-30T19:35:41;19.10;51.50
69054;DHT22;56125;52.242;4.756;2022-09-30T19:40:42;19.10;51.50
69054;DHT22;56125;52.242;4.756;2022-09-30T19:45:53;19.10;51.50
69054;DHT22;56125;52.242;4.756;2022-09-30T19:51:08;19.10;51.50
69054;DHT22;56125;52.242;4.756;2022-09-30T19:56:12;19.00;51.50
69054;DHT22;56125;52.242;4.756;2022-09-30T20:01:14;19.00;51.50
69054;DHT22;56125;52.242;4.756;2022-09-30T20:06:16;19.00;51.50
69054;DHT22;56125;52.242;4.756;2022-09-30T20:11:19;19.00;51.50
69054;DHT22;56125;52.242;4.756;2022-09-30T20:16:20;19.00;51.40
69054;DHT22;56125;52.242;4.756;2022-09-30T20:21:21;19.00;51.40
69054;DHT22;56125;52.242;4.756;2022-09-30T20:26:22;19.00;51.50
69054;DHT22;56125;52.242;4.756;2022-09-30T20:31:24;19.00;51.50
69054;DHT22;56125;52.242;4.756;2022-09-30T20:36:27;19.00;51.50
69054;DHT22;56125;52.242;4.756;2022-09-30T20:41:31;19.00;51.60
69054;DHT22;56125;52.242;4.756;2022-09-30T20:46:35;19.00;51.60
69054;DHT22;56125;52.242;4.756;2022-09-30T20:51:36;19.00;51.70
69054;DHT22;56125;52.242;4.756;2022-09-30T20:56:37;18.90;51.70
69054;DHT22;56125;52.242;4.756;2022-09-30T21:01:38;18.90;51.70
69054;DHT22;56125;52.242;4.756;2022-09-30T21:06:39;19.00;51.90
69054;DHT22;56125;52.242;4.756;2022-09-30T21:11:40;18.90;51.90
69054;DHT22;56125;52.242;4.756;2022-09-30T21:16:42;18.90;52.00
69054;DHT22;56125;52.242;4.756;2022-09-30T21:21:43;18.90;52.10
69054;DHT22;56125;52.242;4.756;2022-09-30T21:26:44;19.00;52.30
69054;DHT22;56125;52.242;4.756;2022-09-30T21:31:45;18.90;52.20
69054;DHT22;56125;52.242;4.756;2022-09-30T21:36:46;18.90;52.30
69054;DHT22;56125;52.242;4.756;2022-09-30T21:41:48;18.90;52.40
69054;DHT22;56125;52.242;4.756;2022-09-30T21:46:50;18.90;53.50
69054;DHT22;56125;52.242;4.756;2022-09-30T21:51:51;18.90;52.50
69054;DHT22;56125;52.242;4.756;2022-09-30T21:56:55;18.90;52.70
69054;DHT22;56125;52.242;4.756;2022-09-30T22:01:56;18.90;52.80
69054;DHT22;56125;52.242;4.756;2022-09-30T22:06:57;18.90;53.00
69054;DHT22;56125;52.242;4.756;2022-09-30T22:11:58;18.90;53.00
69054;DHT22;56125;52.242;4.756;2022-09-30T22:16:59;18.90;53.10
69054;DHT22;56125;52.242;4.756;2022-09-30T22:22:00;18.90;53.10
69054;DHT22;56125;52.242;4.756;2022-09-30T22:27:03;18.90;53.30
69054;DHT22;56125;52.242;4.756;2022-09-30T22:32:08;18.80;53.20
69054;DHT22;56125;52.242;4.756;2022-09-30T22:37:09;18.90;53.40
69054;DHT22;56125;52.242;4.756;2022-09-30T22:42:28;18.90;53.60
69054;DHT22;56125;52.242;4.756;2022-09-30T22:47:29;18.80;53.40
69054;DHT22;56125;52.242;4.756;2022-09-30T22:52:30;18.80;53.50
69054;DHT22;56125;52.242;4.756;2022-09-30T22:57:31;18.80;53.60
69054;DHT22;56125;52.242;4.756;2022-09-30T23:02:33;18.80;53.60
69054;DHT22;56125;52.242;4.756;2022-09-30T23:07:34;18.80;53.70
69054;DHT22;56125;52.242;4.756;2022-09-30T23:12:35;18.80;53.70
69054;DHT22;56125;52.242;4.756;2022-09-30T23:17:36;18.80;53.80
69054;DHT22;56125;52.242;4.756;2022-09-30T23:22:37;18.80;53.90
69054;DHT22;56125;52.242;4.756;2022-09-30T23:27:38;18.80;53.90
69054;DHT22;56125;52.242;4.756;2022-09-30T23:32:39;18.80;53.90
69054;DHT22;56125;52.242;4.756;2022-09-30T23:37:40;18.80;54.00
69054;DHT22;56125;52.242;4.756;2022-09-30T23:42:41;18.80;54.10
69054;DHT22;56125;52.242;4.756;2022-09-30T23:47:45;18.80;54.10
69054;DHT22;56125;52.242;4.756;2022-09-30T23:52:47;18.80;54.20
69054;DHT22;56125;52.242;4.756;2022-09-30T23:57:49;18.80;54.30
